Pagina principale
METAR-TAF:

METAR-TAF

Aeroporti :

Contea di Franklin, Vermont, Stati Uniti

latitudine: 44-56-25N, longitudine: 073-05-51W, altezza: 69 m

Osservazione

Il bollettino è stato emesso 8 minuti fa, alle 07:55 UTC
Vento 3 kt da nord
Temperature 12°C
Umidità 50%
Pressione 1018 hPa
Visibilità: 16.1 km
Nubi sparse ad un'altezza di 12000 ft

METAR: KFSO 240755Z AUTO 35003KT 10SM SCT120 12/02 A3006 RMK AO2 T01160019

Ora: 04:03 (08:03 UTC)


TAF: mancante

Osservazioni e previsioni meteorologiche di più di 4000 aeroporti (messaggi METAR e TAF).

Le stazioni disponibili sono rappresentate dai dischi gialli e rossi sulla carta.

Puntare il mouse per vedere il nome della stazione.

Clicca sopra per visualizzare le osservazioni e previsioni meteorologiche.

Per cambiare la mappa : fare clic sui pulsanti verdi con una croce nera per ingrandire, il pulsante verde con un trattino per diminuire, o sulla freccia verde per le mappe adiacenti.


METAR-TAF: